COOK1: Arkansas River Nr Coolidge, KS

Data processed at Sun Sep 23 2018 22:02


All information presented herein is the property of the government of the United States of America and may be revised or deleted at any time without prior notice.
Dissemination of this information without the expressed written consent of the Public Affairs Office, Tulsa District U.S. Army Corps of Engineers is strictly prohibited.
These data are gathered electronically and, as presented, have not undergone any form of quality control. These data are not guaranteed to be valid or correct.
Go to home page.
Go to station list.
Go to home page.

Upstream stations:

Downstream station:
Previous Day
Next Day
Current Day
    
SHEF ID:       COOK1     ARKANSAS R NR COOLIDGE, KS
STATION TYPE:  

               PRECIP     STAGE  STAGE(2)  RIV-FLOW  WTR-TEMP   CONDUCT  BAT-LOAD
                   in        ft        ft       cfs         F   umho/cm      volt
              Ccp-Rev   Ccp-Rev   Ccp-Rev   Ccp-Rev   Ccp-Rev   Ccp-Rev   Ccp-Rev
(US/Central)
09/23 00:00      0.00      3.21      3.19       152     64.09      6509     13.00
09/23 01:00      0.00      3.23      3.21       155     63.23      6480     12.95
09/23 02:00      0.00      3.22      3.20       153     62.47      6430     12.89
09/23 03:00      0.00      3.21      3.19       152     61.72      6453     12.89
09/23 04:00      0.00      3.20      3.18       150     61.02      6464     12.89
09/23 05:00      0.00      3.21      3.19       152     60.30      6466     12.83
09/23 06:00      0.00      3.21      3.18       152     59.68      6458     12.83
09/23 07:00      0.00      3.22      3.16       153     59.09      6466     12.77
09/23 08:00      0.00      3.22      3.18       153     58.50      6460     12.71
09/23 09:00      0.00      3.22      3.20       153     58.24      6460     12.77
09/23 10:00      0.00      3.24      3.22       156     58.84      6442     13.59
09/23 11:00      0.00      3.23      3.25       155     60.28      6403     13.71
09/23 12:00      0.00      3.23      3.24       155     62.26      6376     13.77
09/23 13:00      0.00      3.25      3.25       158     64.63      6350     13.77
09/23 14:00      0.00      3.24      3.24       156     67.05      6332     13.71
09/23 15:00      0.00      3.25      3.26       158     69.19      6320     13.83
09/23 16:00      0.00      3.24      3.25       156     70.70      6313     13.83
09/23 17:00      0.00      3.24      3.24       156     71.42      6309     13.48
09/23 18:00      0.00      3.23      3.24       155     71.24      6295     13.24
09/23 19:00      0.00      3.23      3.23       155     70.27      6287     13.18
09/23 20:00      0.00      3.22      3.22       153     68.97      6287     13.12
09/23 21:00      0.00      3.22      3.21       153     67.80      6302     13.07
09/23 22:00      ----      ----      ----      ----      ----      ----      ----
09/23 23:00      ----      ----      ----      ----      ----      ----      ----